Time;durP1;ratioP1;P1;durP2;ratioP2;P2;SDS_P1;SDS_P2;PMS_P1;PMS_P2;Temp;Humidity;BMP_temperature;BMP_pressure;BME280_temperature;BME280_humidity;BME280_pressure;Samples;Min_cycle;Max_cycle;Signal;HPM_P1;HPM_P2
2022/10/20 00:02:16;;;;;;;373.60;355.87;;;10.80;99.90;;;;;;4996716;28;20474;-83
2022/10/20 00:04:44;;;;;;;357.73;341.23;;;10.80;99.90;;;;;;4996737;28;20465;-83
2022/10/20 00:07:11;;;;;;;351.13;334.93;;;10.90;99.90;;;;;;4996488;28;20477;-83
2022/10/20 00:09:38;;;;;;;331.10;315.70;;;10.90;99.90;;;;;;4997073;28;20545;-83
2022/10/20 00:12:05;;;;;;;299.13;285.00;;;10.90;99.90;;;;;;4996607;28;20458;-83
2022/10/20 00:14:32;;;;;;;284.37;270.93;;;11.00;99.90;;;;;;4997192;28;20458;-83
2022/10/20 00:17:00;;;;;;;285.57;272.43;;;11.10;99.90;;;;;;4996449;28;20475;-83
2022/10/20 00:19:27;;;;;;;252.90;242.00;;;11.10;99.90;;;;;;4996952;28;20466;-83
2022/10/20 00:21:55;;;;;;;229.93;219.93;;;11.20;99.90;;;;;;4996195;28;20470;-83
2022/10/20 00:24:21;;;;;;;246.43;236.37;;;11.10;99.90;;;;;;4996825;28;20955;-83
2022/10/20 00:26:48;;;;;;;252.37;241.73;;;11.10;99.90;;;;;;4996073;28;21031;-83
2022/10/20 00:29:15;;;;;;;231.53;221.17;;;11.10;99.90;;;;;;4996825;28;20454;-83
2022/10/20 00:31:42;;;;;;;201.57;192.93;;;11.20;99.90;;;;;;4996580;28;20461;-83
2022/10/20 00:34:09;;;;;;;179.43;171.70;;;11.30;99.90;;;;;;4995978;28;20454;-83
2022/10/20 00:36:36;;;;;;;175.27;167.63;;;11.20;99.90;;;;;;4996452;28;20489;-83
2022/10/20 00:39:05;;;;;;;175.77;168.23;;;11.30;99.90;;;;;;4996582;28;20465;-83
2022/10/20 00:41:32;;;;;;;202.33;194.23;;;11.10;99.90;;;;;;4996590;28;20477;-82
2022/10/20 00:44:01;;;;;;;219.23;209.90;;;11.00;99.90;;;;;;4995975;28;20454;-83
2022/10/20 00:46:32;;;;;;;236.80;227.40;;;10.90;99.90;;;;;;4996232;28;20490;-83
2022/10/20 00:49:02;;;;;;;269.30;258.40;;;10.80;99.90;;;;;;4996025;28;20460;-83
2022/10/20 00:51:33;;;;;;;257.80;246.37;;;10.80;99.90;;;;;;4996360;28;20470;-84
2022/10/20 00:54:06;;;;;;;264.70;253.67;;;10.80;99.90;;;;;;4994796;28;20964;-82
2022/10/20 00:56:34;;;;;;;272.97;261.10;;;10.80;99.90;;;;;;4997020;28;20466;-83
2022/10/20 00:59:02;;;;;;;275.73;264.03;;;10.80;99.90;;;;;;4996093;28;20457;-83
2022/10/20 01:01:29;;;;;;;276.23;264.07;;;10.70;99.90;;;;;;4995939;28;20473;-83
2022/10/20 01:03:55;;;;;;;263.37;251.17;;;10.80;99.90;;;;;;4997962;28;20460;-83
2022/10/20 01:06:26;;;;;;;251.50;240.43;;;10.80;99.90;;;;;;5000795;28;20482;-83
2022/10/20 01:08:54;;;;;;;231.77;221.77;;;10.90;99.90;;;;;;4999985;28;20457;-83
2022/10/20 01:11:32;;;;;;;239.80;229.30;;;10.80;99.90;;;;;;5000209;28;20445;-83
2022/10/20 01:14:14;;;;;;;249.70;239.50;;;10.80;99.90;;;;;;5000546;28;20457;-84
2022/10/20 01:16:51;;;;;;;257.60;246.63;;;10.80;99.90;;;;;;5000089;28;20473;-83
2022/10/20 01:19:37;;;;;;;259.03;247.83;;;10.80;99.90;;;;;;5000120;28;20469;-84
2022/10/20 01:22:22;;;;;;;254.40;243.70;;;10.70;99.90;;;;;;4999843;28;20756;-83
2022/10/20 01:25:07;;;;;;;238.57;228.20;;;10.70;99.90;;;;;;4999583;28;20458;-83
2022/10/20 01:27:38;;;;;;;237.10;227.03;;;10.80;99.90;;;;;;4999103;28;21019;-83
2022/10/20 01:30:12;;;;;;;235.97;226.00;;;10.70;99.90;;;;;;5000079;28;20462;-83
2022/10/20 01:32:55;;;;;;;229.83;219.83;;;10.70;99.90;;;;;;4999098;28;20454;-83
2022/10/20 01:35:31;;;;;;;239.00;228.30;;;10.80;99.90;;;;;;4999276;28;20454;-83
2022/10/20 01:38:06;;;;;;;228.17;218.37;;;10.70;99.90;;;;;;5000001;28;20453;-82
2022/10/20 01:40:38;;;;;;;227.40;217.80;;;10.70;99.90;;;;;;4999307;28;20839;-83
2022/10/20 01:43:10;;;;;;;225.97;216.60;;;10.70;99.90;;;;;;4999888;28;20477;-83
2022/10/20 01:45:40;;;;;;;229.97;220.07;;;10.60;99.90;;;;;;4999463;28;20458;-83
2022/10/20 01:48:10;;;;;;;213.90;205.00;;;10.70;99.90;;;;;;4999442;28;20465;-83
2022/10/20 01:50:39;;;;;;;202.83;194.10;;;10.80;99.90;;;;;;4999164;28;20837;-83
2022/10/20 01:53:06;;;;;;;186.90;179.07;;;10.80;99.90;;;;;;4981009;28;20455;-83
2022/10/20 01:55:34;;;;;;;182.17;173.77;;;10.80;99.90;;;;;;4979575;28;20845;-83
2022/10/20 01:58:39;;;;;;;172.57;165.03;;;10.80;99.90;;;;;;4998257;28;20454;-83
2022/10/20 02:01:13;;;;;;;161.83;154.23;;;10.90;99.90;;;;;;4968940;28;20450;-83
2022/10/20 02:03:50;;;;;;;150.77;144.50;;;10.90;99.90;;;;;;4998957;28;20540;-83
2022/10/20 02:06:27;;;;;;;138.13;132.50;;;10.90;99.90;;;;;;4998910;28;20823;-82
2022/10/20 02:08:56;;;;;;;134.30;128.47;;;10.90;99.90;;;;;;4999475;28;20458;-82
2022/10/20 02:11:30;;;;;;;127.27;122.00;;;11.00;99.90;;;;;;4998501;28;20450;-83
2022/10/20 02:13:59;;;;;;;115.53;110.00;;;11.00;99.90;;;;;;4998606;28;20454;-83
2022/10/20 02:16:29;;;;;;;104.73;100.20;;;11.00;99.90;;;;;;4997693;28;20474;-83
2022/10/20 02:18:57;;;;;;;104.87;100.37;;;10.90;99.90;;;;;;4998889;28;20880;-83
2022/10/20 02:21:25;;;;;;;94.03;90.03;;;10.90;99.90;;;;;;4998286;28;20477;-83
2022/10/20 02:23:54;;;;;;;104.80;99.97;;;11.00;99.90;;;;;;4998480;28;20488;-83
2022/10/20 02:26:24;;;;;;;104.27;99.17;;;10.90;99.90;;;;;;4998235;28;20470;-83
2022/10/20 02:28:56;;;;;;;105.30;100.80;;;10.90;99.90;;;;;;4999504;28;20841;-83
2022/10/20 02:31:24;;;;;;;110.87;105.73;;;10.80;99.90;;;;;;4998518;28;20450;-83
2022/10/20 02:33:53;;;;;;;113.90;109.13;;;10.90;99.90;;;;;;4998498;28;20458;-83
2022/10/20 02:36:21;;;;;;;107.33;102.83;;;10.80;99.90;;;;;;4998138;28;20482;-83
2022/10/20 02:38:48;;;;;;;101.27;96.77;;;10.90;99.90;;;;;;4998689;28;20458;-81
2022/10/20 02:41:14;;;;;;;96.67;92.00;;;10.90;99.90;;;;;;4998446;28;20462;-83
2022/10/20 02:43:41;;;;;;;86.70;82.33;;;10.90;99.90;;;;;;4998099;28;20462;-83
2022/10/20 02:46:08;;;;;;;82.33;78.33;;;10.90;99.90;;;;;;4998261;28;20470;-83
2022/10/20 02:48:37;;;;;;;78.20;74.60;;;10.90;99.90;;;;;;4998358;28;20450;-82
2022/10/20 02:51:04;;;;;;;66.60;63.27;;;10.90;99.90;;;;;;4998160;28;20457;-83
2022/10/20 02:53:31;;;;;;;63.43;60.10;;;10.90;99.90;;;;;;4998334;28;20465;-83
2022/10/20 02:55:58;;;;;;;58.80;55.60;;;11.00;99.90;;;;;;4997236;28;20481;-83
2022/10/20 02:58:25;;;;;;;52.73;49.73;;;10.90;99.90;;;;;;4998519;28;20454;-83
2022/10/20 03:00:52;;;;;;;55.33;52.33;;;11.00;99.90;;;;;;4997949;28;20455;-83
2022/10/20 03:03:19;;;;;;;45.50;42.90;;;11.00;99.90;;;;;;4997887;28;21011;-83
2022/10/20 03:05:47;;;;;;;43.90;41.50;;;11.00;99.90;;;;;;4997693;28;20478;-84
2022/10/20 03:08:14;;;;;;;40.80;37.90;;;11.00;99.90;;;;;;4997612;28;20838;-83
2022/10/20 03:10:41;;;;;;;39.27;36.87;;;11.00;99.90;;;;;;4997906;28;20462;-83
2022/10/20 03:13:08;;;;;;;30.00;27.67;;;11.00;99.90;;;;;;4997210;28;20450;-81
2022/10/20 03:15:35;;;;;;;32.53;30.63;;;11.10;99.90;;;;;;4998392;28;20465;-83
2022/10/20 03:18:02;;;;;;;37.77;35.57;;;11.00;99.90;;;;;;4997684;28;20457;-83
2022/10/20 03:20:28;;;;;;;34.90;32.50;;;11.00;99.90;;;;;;4997848;28;20450;-83
2022/10/20 03:22:56;;;;;;;34.30;32.10;;;11.00;99.90;;;;;;4996512;28;20987;-83
2022/10/20 03:25:23;;;;;;;29.37;27.07;;;10.90;99.90;;;;;;4996324;28;20454;-83
2022/10/20 03:27:50;;;;;;;24.60;22.50;;;11.00;99.90;;;;;;4986576;28;20454;-83
2022/10/20 03:30:17;;;;;;;21.67;19.70;;;11.10;99.90;;;;;;4994583;28;20454;-83
2022/10/20 03:32:43;;;;;;;19.77;18.27;;;11.10;99.90;;;;;;4995800;28;20447;-83
2022/10/20 03:35:10;;;;;;;20.10;18.60;;;11.10;99.90;;;;;;4996195;28;20458;-83
2022/10/20 03:37:37;;;;;;;27.37;25.40;;;11.10;99.90;;;;;;4978260;28;20486;-83
2022/10/20 03:40:06;;;;;;;18.80;17.30;;;11.10;99.90;;;;;;4977490;28;20993;-83
2022/10/20 03:42:33;;;;;;;16.90;15.30;;;11.10;99.90;;;;;;4990471;28;20474;-83
2022/10/20 03:45:00;;;;;;;18.10;15.70;;;11.20;99.90;;;;;;4998110;28;20454;-82
2022/10/20 03:47:27;;;;;;;18.03;14.73;;;11.20;99.90;;;;;;4997073;28;20482;-84
2022/10/20 03:49:53;;;;;;;15.80;14.30;;;11.20;99.90;;;;;;4997838;28;20458;-82
2022/10/20 03:52:20;;;;;;;15.67;13.57;;;11.20;99.90;;;;;;4996875;28;20454;-83
2022/10/20 03:54:47;;;;;;;13.50;11.47;;;11.10;99.90;;;;;;4996937;28;20458;-82
2022/10/20 03:57:15;;;;;;;14.13;11.40;;;11.20;99.90;;;;;;4996335;28;20477;-83
2022/10/20 03:59:42;;;;;;;19.23;12.40;;;11.20;99.90;;;;;;4997184;28;20454;-83
2022/10/20 04:02:22;;;;;;;13.63;12.43;;;11.10;99.90;;;;;;4997165;28;20477;-83
2022/10/20 04:04:49;;;;;;;14.80;13.40;;;11.10;99.90;;;;;;4997965;28;20477;-83
2022/10/20 04:07:15;;;;;;;17.03;15.40;;;11.10;99.90;;;;;;4996303;28;20481;-83
2022/10/20 04:09:42;;;;;;;18.17;16.67;;;11.00;99.90;;;;;;4998105;28;20939;-83
2022/10/20 04:12:09;;;;;;;20.33;18.60;;;11.00;99.90;;;;;;4997772;28;20450;-83
2022/10/20 04:14:39;;;;;;;18.90;17.00;;;10.90;99.90;;;;;;4997148;28;20450;-83
2022/10/20 04:17:06;;;;;;;17.73;16.27;;;11.00;99.90;;;;;;4997559;28;20532;-83
2022/10/20 04:19:33;;;;;;;15.10;13.80;;;11.00;99.90;;;;;;4998625;28;20461;-83
2022/10/20 04:22:00;;;;;;;16.27;14.60;;;11.00;99.90;;;;;;4998941;28;20478;-83
2022/10/20 04:24:26;;;;;;;15.50;13.00;;;11.00;99.90;;;;;;4999562;28;20451;-83
2022/10/20 04:26:53;;;;;;;15.20;13.27;;;11.00;99.90;;;;;;5015703;28;20470;-84
2022/10/20 04:29:20;;;;;;;12.50;11.20;;;11.00;99.90;;;;;;5016781;28;20460;-84
2022/10/20 04:31:48;;;;;;;12.80;11.03;;;11.10;99.90;;;;;;5017364;28;20760;-86
2022/10/20 04:34:15;;;;;;;12.60;11.33;;;11.10;99.90;;;;;;5015522;28;20454;-83
2022/10/20 04:36:42;;;;;;;18.27;12.30;;;11.10;99.90;;;;;;5002970;28;20516;-84
2022/10/20 04:39:09;;;;;;;19.00;10.73;;;11.00;99.90;;;;;;4997981;28;20454;-85
2022/10/20 04:41:36;;;;;;;12.53;11.00;;;11.10;99.90;;;;;;4997594;28;20450;-84
2022/10/20 04:44:02;;;;;;;12.63;10.90;;;11.10;99.90;;;;;;4997192;28;20509;-83
2022/10/20 04:46:29;;;;;;;14.00;12.53;;;11.10;99.90;;;;;;4998161;28;20481;-85
2022/10/20 04:48:57;;;;;;;14.77;10.83;;;11.10;99.90;;;;;;4996780;28;20477;-84
2022/10/20 04:51:24;;;;;;;12.07;10.80;;;11.10;99.90;;;;;;4997569;28;20450;-84
2022/10/20 04:53:51;;;;;;;13.80;11.33;;;11.20;99.90;;;;;;4996952;28;20446;-84
2022/10/20 04:56:20;;;;;;;18.27;11.53;;;11.30;99.90;;;;;;4997188;28;20489;-84
2022/10/20 04:58:48;;;;;;;18.30;10.10;;;11.10;99.90;;;;;;4996736;28;20460;-84
2022/10/20 05:01:14;;;;;;;16.37;11.13;;;11.20;99.90;;;;;;4996803;28;20966;-84
2022/10/20 05:03:41;;;;;;;13.53;10.70;;;11.10;99.90;;;;;;4997112;28;21045;-84
2022/10/20 05:06:12;;;;;;;13.10;11.33;;;11.10;99.90;;;;;;4996137;28;20473;-84
2022/10/20 05:08:39;;;;;;;13.43;10.17;;;11.10;99.90;;;;;;4997000;28;20825;-85
2022/10/20 05:11:07;;;;;;;13.47;9.30;;;11.10;99.90;;;;;;4996509;28;20461;-84
2022/10/20 05:13:38;;;;;;;11.93;10.43;;;11.10;99.90;;;;;;4996072;28;20458;-84
2022/10/20 05:16:07;;;;;;;11.13;9.00;;;11.10;99.90;;;;;;4995784;28;20473;-83
2022/10/20 05:18:41;;;;;;;14.70;10.70;;;11.10;99.90;;;;;;4996028;28;20470;-84
2022/10/20 05:21:08;;;;;;;17.07;11.20;;;11.00;99.90;;;;;;4996653;28;20454;-83
2022/10/20 05:23:39;;;;;;;11.30;9.00;;;11.00;99.90;;;;;;4995789;28;20500;-83
2022/10/20 05:26:08;;;;;;;11.90;9.67;;;11.10;99.90;;;;;;4996559;28;20474;-85
2022/10/20 05:28:35;;;;;;;12.80;8.73;;;11.10;99.90;;;;;;4996607;28;20454;-85
2022/10/20 05:31:03;;;;;;;11.70;9.30;;;11.10;99.90;;;;;;4996821;28;20454;-83
2022/10/20 05:33:30;;;;;;;10.73;8.83;;;11.10;99.90;;;;;;4997590;28;20454;-84
2022/10/20 05:35:56;;;;;;;15.97;11.37;;;10.90;99.90;;;;;;4996539;28;20470;-83
2022/10/20 05:38:23;;;;;;;10.87;9.53;;;11.00;99.90;;;;;;4997247;28;20525;-84
2022/10/20 05:40:51;;;;;;;12.40;9.47;;;11.00;99.90;;;;;;4997201;28;20454;-84
2022/10/20 05:43:18;;;;;;;12.73;9.97;;;11.00;99.90;;;;;;4995828;28;20481;-84
2022/10/20 05:45:45;;;;;;;13.70;10.30;;;11.00;99.90;;;;;;4996637;28;20849;-84
2022/10/20 05:48:11;;;;;;;14.43;10.50;;;11.00;99.90;;;;;;4996516;28;20462;-83
2022/10/20 05:50:38;;;;;;;11.90;10.43;;;11.00;99.90;;;;;;4999029;28;20815;-84
2022/10/20 05:53:05;;;;;;;14.30;10.40;;;11.00;99.90;;;;;;5000033;28;20450;-83
2022/10/20 05:55:32;;;;;;;12.70;10.10;;;11.00;99.90;;;;;;5000549;28;20454;-83
2022/10/20 05:58:00;;;;;;;14.60;9.60;;;11.10;99.90;;;;;;5001677;28;20457;-84
2022/10/20 06:00:30;;;;;;;12.00;9.90;;;11.10;99.90;;;;;;5000849;28;20454;-83
2022/10/20 06:02:57;;;;;;;16.03;10.10;;;11.00;99.90;;;;;;5000004;28;20477;-84
2022/10/20 06:05:24;;;;;;;10.50;8.97;;;11.00;99.90;;;;;;4999169;28;20458;-84
2022/10/20 06:07:53;;;;;;;12.63;9.87;;;11.00;99.90;;;;;;5000020;28;20456;-85
2022/10/20 06:10:20;;;;;;;15.07;9.63;;;11.10;99.90;;;;;;5000055;28;21018;-84
2022/10/20 06:12:47;;;;;;;15.07;10.77;;;11.10;99.90;;;;;;4999340;28;20457;-85
2022/10/20 06:15:15;;;;;;;14.50;9.70;;;11.10;99.90;;;;;;5000866;28;20465;-87
2022/10/20 06:17:42;;;;;;;12.60;9.23;;;11.20;99.90;;;;;;5000342;28;20466;-87
2022/10/20 06:20:12;;;;;;;12.37;8.87;;;11.10;99.90;;;;;;4999561;28;20482;-86
2022/10/20 06:22:39;;;;;;;12.83;10.90;;;11.20;99.90;;;;;;4998297;28;21002;-85
2022/10/20 06:25:07;;;;;;;13.27;11.97;;;11.10;99.90;;;;;;4998303;28;20504;-85
2022/10/20 06:27:34;;;;;;;11.93;10.17;;;11.20;99.90;;;;;;4999100;28;20988;-85
2022/10/20 06:30:00;;;;;;;18.17;10.73;;;11.20;99.90;;;;;;4998649;28;20465;-85
2022/10/20 06:32:28;;;;;;;13.60;10.90;;;11.10;99.90;;;;;;4998530;28;20460;-85
2022/10/20 06:34:55;;;;;;;20.97;11.13;;;11.20;99.90;;;;;;4997789;28;20458;-85
2022/10/20 06:37:22;;;;;;;13.30;10.67;;;11.20;99.90;;;;;;4999707;28;20489;-85
2022/10/20 06:39:48;;;;;;;12.87;9.77;;;11.20;99.90;;;;;;4998787;28;20835;-85
2022/10/20 06:42:15;;;;;;;13.97;10.60;;;11.20;99.90;;;;;;4997297;28;20457;-85
2022/10/20 06:44:42;;;;;;;13.80;9.57;;;11.20;99.90;;;;;;4998078;28;20461;-85
2022/10/20 06:47:09;;;;;;;11.53;9.13;;;11.30;99.90;;;;;;4998038;28;20474;-84
2022/10/20 06:49:39;;;;;;;13.90;9.30;;;11.40;99.90;;;;;;4993332;28;20463;-85
2022/10/20 06:52:05;;;;;;;13.63;9.80;;;11.40;99.90;;;;;;4978807;28;20546;-84
2022/10/20 06:54:34;;;;;;;13.53;9.40;;;11.50;99.90;;;;;;4997586;28;20454;-84
2022/10/20 06:57:01;;;;;;;16.13;9.77;;;11.50;99.90;;;;;;4998216;28;20509;-85
2022/10/20 06:59:28;;;;;;;16.10;11.27;;;11.60;99.90;;;;;;4997707;28;20956;-85
2022/10/20 07:01:54;;;;;;;15.47;10.43;;;11.60;99.90;;;;;;4997646;28;20462;-85
2022/10/20 07:04:21;;;;;;;13.50;8.43;;;11.70;99.90;;;;;;4997649;28;20482;-85
2022/10/20 07:06:49;;;;;;;13.57;9.37;;;11.70;99.90;;;;;;4997575;28;20477;-85
2022/10/20 07:09:19;;;;;;;22.53;10.37;;;11.70;99.90;;;;;;4997863;28;20974;-85
2022/10/20 07:11:51;;;;;;;14.97;8.70;;;11.80;99.90;;;;;;4997775;28;20462;-85
2022/10/20 07:14:18;;;;;;;13.40;7.80;;;11.80;99.90;;;;;;4993140;28;20450;-84
2022/10/20 07:16:44;;;;;;;11.00;8.80;;;11.90;99.90;;;;;;4997053;28;20477;-85
2022/10/20 07:19:13;;;;;;;13.13;9.27;;;11.90;99.90;;;;;;4998436;28;20960;-85
2022/10/20 07:21:40;;;;;;;12.87;8.57;;;11.80;99.90;;;;;;4997294;28;20485;-85
2022/10/20 07:24:08;;;;;;;17.60;9.30;;;12.00;99.90;;;;;;4997149;28;21031;-84
2022/10/20 07:26:36;;;;;;;12.07;8.60;;;11.90;99.90;;;;;;4997453;28;20578;-85
2022/10/20 07:29:04;;;;;;;19.97;8.80;;;11.90;99.90;;;;;;4997151;28;21100;-86
2022/10/20 07:31:32;;;;;;;16.23;10.40;;;12.00;99.90;;;;;;4997827;28;20658;-84
2022/10/20 07:34:00;;;;;;;19.00;8.20;;;12.00;99.90;;;;;;4995949;28;20461;-86
2022/10/20 07:36:28;;;;;;;13.10;8.27;;;12.10;99.90;;;;;;4997296;28;20884;-85
2022/10/20 07:38:57;;;;;;;17.30;9.63;;;12.20;99.90;;;;;;4997506;28;20461;-84
2022/10/20 07:41:26;;;;;;;17.13;9.07;;;12.20;99.90;;;;;;4997058;28;20454;-85
2022/10/20 07:43:54;;;;;;;12.73;9.10;;;12.30;99.90;;;;;;4996858;28;20482;-85
2022/10/20 07:46:21;;;;;;;15.87;10.23;;;12.40;99.90;;;;;;4997065;28;20860;-85
2022/10/20 07:48:47;;;;;;;16.90;10.30;;;12.40;99.90;;;;;;4997100;28;20453;-85
2022/10/20 07:51:17;;;;;;;12.57;8.50;;;12.40;99.90;;;;;;4996895;28;20462;-85
2022/10/20 07:53:44;;;;;;;13.67;7.70;;;12.50;99.90;;;;;;4996963;28;20450;-85
2022/10/20 07:56:11;;;;;;;10.23;7.63;;;12.60;99.90;;;;;;4996808;28;20481;-85
2022/10/20 07:58:39;;;;;;;15.57;7.80;;;12.70;99.90;;;;;;4996615;28;20454;-85
2022/10/20 08:01:06;;;;;;;12.60;8.80;;;12.70;99.90;;;;;;4997221;28;20454;-85
2022/10/20 08:03:33;;;;;;;16.17;8.23;;;12.70;99.90;;;;;;5004524;28;20489;-85
2022/10/20 08:06:00;;;;;;;12.40;7.70;;;12.80;99.90;;;;;;4996582;28;20486;-85
2022/10/20 08:08:27;;;;;;;13.13;9.33;;;12.90;99.90;;;;;;4996710;28;20462;-85
2022/10/20 08:10:54;;;;;;;14.17;9.10;;;13.00;99.90;;;;;;4996837;28;20461;-85
2022/10/20 08:13:21;;;;;;;11.40;8.17;;;13.00;99.80;;;;;;4995428;28;20450;-85
2022/10/20 08:15:49;;;;;;;17.57;9.50;;;13.10;99.20;;;;;;4996276;28;20477;-85
2022/10/20 08:18:16;;;;;;;13.87;8.97;;;13.10;99.00;;;;;;4996380;28;20806;-85
2022/10/20 08:20:44;;;;;;;18.17;9.17;;;13.10;99.20;;;;;;4996725;28;20458;-84
2022/10/20 08:23:10;;;;;;;15.30;8.80;;;13.10;99.80;;;;;;4996120;28;20480;-82
2022/10/20 08:25:37;;;;;;;15.10;9.83;;;13.10;99.50;;;;;;4996514;28;20458;-84
2022/10/20 08:28:04;;;;;;;13.60;8.70;;;13.10;99.50;;;;;;4996392;28;20458;-84
2022/10/20 08:30:31;;;;;;;16.30;9.33;;;13.20;99.90;;;;;;4996771;28;20454;-84
2022/10/20 08:32:59;;;;;;;15.57;9.37;;;13.20;99.00;;;;;;4996664;28;20454;-84
2022/10/20 08:35:25;;;;;;;14.93;8.97;;;13.30;99.00;;;;;;4995779;28;20462;-84
2022/10/20 08:37:52;;;;;;;15.77;8.27;;;13.40;99.00;;;;;;4996073;28;20462;-84
2022/10/20 08:40:21;;;;;;;10.70;8.20;;;13.40;99.00;;;;;;4996633;28;20971;-84
2022/10/20 08:42:49;;;;;;;19.70;9.40;;;13.50;99.00;;;;;;4996109;28;20453;-84
2022/10/20 08:45:19;;;;;;;15.10;7.93;;;13.50;98.40;;;;;;4996153;28;20483;-83
2022/10/20 08:47:48;;;;;;;16.00;8.70;;;13.70;98.90;;;;;;4995610;28;20469;-84
2022/10/20 08:50:18;;;;;;;15.50;8.30;;;13.70;97.80;;;;;;4998529;28;20462;-84
2022/10/20 08:52:47;;;;;;;12.93;9.10;;;13.80;97.10;;;;;;4996992;28;20516;-84
2022/10/20 08:55:21;;;;;;;14.77;9.20;;;13.80;97.40;;;;;;4980366;28;20466;-84
2022/10/20 08:57:49;;;;;;;11.23;8.07;;;13.80;97.50;;;;;;4977739;28;20453;-84
2022/10/20 09:00:18;;;;;;;12.20;8.07;;;13.80;96.90;;;;;;4983065;28;20826;-83
2022/10/20 09:02:46;;;;;;;15.00;8.70;;;13.80;97.10;;;;;;4996124;28;20457;-84
2022/10/20 09:05:15;;;;;;;12.20;8.60;;;13.70;97.10;;;;;;4996125;28;20991;-84
2022/10/20 09:07:43;;;;;;;15.77;9.63;;;13.70;96.90;;;;;;4997767;28;20485;-84
2022/10/20 09:10:28;;;;;;;12.33;8.50;;;13.70;97.10;;;;;;4997792;28;20995;-85
2022/10/20 09:12:56;;;;;;;12.40;8.63;;;13.70;97.30;;;;;;4997545;28;20454;-84
2022/10/20 09:15:25;;;;;;;21.90;8.60;;;14.00;97.10;;;;;;4996485;28;20446;-84
2022/10/20 09:17:56;;;;;;;15.33;8.60;;;14.20;96.30;;;;;;5000920;28;20537;-86
2022/10/20 09:20:27;;;;;;;14.80;9.00;;;14.50;96.10;;;;;;4997759;28;20447;-84
2022/10/20 09:22:55;;;;;;;11.40;7.30;;;14.60;95.70;;;;;;4997587;28;20458;-84
2022/10/20 09:25:26;;;;;;;13.97;8.97;;;14.80;94.90;;;;;;4999330;28;20478;-83
2022/10/20 09:27:54;;;;;;;10.40;7.90;;;14.80;95.10;;;;;;5001192;28;20498;-85
2022/10/20 09:30:24;;;;;;;12.53;7.90;;;14.80;95.10;;;;;;5003046;28;20460;-85
2022/10/20 09:32:51;;;;;;;16.80;7.23;;;14.70;94.10;;;;;;5000430;28;21017;-85
2022/10/20 09:35:21;;;;;;;14.20;9.00;;;14.40;94.70;;;;;;5000074;28;20459;-84
2022/10/20 09:38:09;;;;;;;13.03;8.50;;;14.30;95.00;;;;;;5000492;28;20488;-84
2022/10/20 09:40:44;;;;;;;13.70;8.67;;;14.10;95.80;;;;;;5000075;28;20451;-85
2022/10/20 09:43:16;;;;;;;16.00;8.83;;;13.80;95.70;;;;;;5000297;28;20460;-83
2022/10/20 09:45:51;;;;;;;16.17;8.70;;;13.70;96.40;;;;;;5000597;28;20466;-85
2022/10/20 09:48:23;;;;;;;14.70;8.83;;;13.60;96.60;;;;;;5000827;28;20458;-84
2022/10/20 09:50:53;;;;;;;25.67;9.40;;;13.60;98.00;;;;;;5000504;28;20449;-85
2022/10/20 09:53:25;;;;;;;15.63;10.20;;;13.50;99.00;;;;;;4999808;28;20462;-85
2022/10/20 09:55:53;;;;;;;18.17;9.30;;;13.60;99.80;;;;;;5006092;28;20485;-85
2022/10/20 09:58:27;;;;;;;11.07;8.03;;;13.60;99.10;;;;;;4999623;28;20891;-85
2022/10/20 10:01:00;;;;;;;14.33;9.00;;;13.60;99.20;;;;;;5000230;28;20458;-84
2022/10/20 10:03:27;;;;;;;13.97;9.37;;;13.40;99.10;;;;;;5000122;28;20450;-84
2022/10/20 10:05:55;;;;;;;16.83;9.67;;;13.40;99.70;;;;;;5000262;28;20473;-84
2022/10/20 10:08:24;;;;;;;21.20;13.30;;;13.40;99.90;;;;;;4999965;28;20466;-84
2022/10/20 10:11:03;;;;;;;20.17;11.77;;;13.60;99.90;;;;;;4999944;28;20458;-84
2022/10/20 10:13:35;;;;;;;15.37;12.73;;;13.90;99.90;;;;;;4999376;28;20461;-85
2022/10/20 10:16:06;;;;;;;16.90;13.47;;;14.00;99.90;;;;;;4999850;28;20485;-84
2022/10/20 10:18:34;;;;;;;16.37;10.97;;;14.10;99.90;;;;;;4999999;28;20465;-84
2022/10/20 10:21:04;;;;;;;13.50;11.07;;;14.20;99.90;;;;;;4999289;28;20460;-85
2022/10/20 10:23:35;;;;;;;16.50;12.27;;;14.40;99.90;;;;;;4998992;28;20952;-84
2022/10/20 10:26:03;;;;;;;16.80;12.00;;;14.40;99.90;;;;;;4999736;28;20478;-85
2022/10/20 10:28:34;;;;;;;16.67;11.30;;;14.40;99.90;;;;;;4999921;28;20656;-84
2022/10/20 10:31:17;;;;;;;16.67;11.93;;;14.40;99.90;;;;;;4999917;28;20465;-85
2022/10/20 10:33:44;;;;;;;21.03;10.10;;;14.30;99.90;;;;;;4999072;28;20457;-85
2022/10/20 10:36:27;;;;;;;17.23;11.20;;;14.00;99.90;;;;;;4999355;28;20477;-85
2022/10/20 10:38:55;;;;;;;16.40;12.40;;;13.80;99.90;;;;;;5001396;28;20461;-85
2022/10/20 10:41:30;;;;;;;18.63;16.63;;;13.70;99.90;;;;;;4999502;28;20449;-85
2022/10/20 10:44:02;;;;;;;26.47;24.27;;;13.50;99.90;;;;;;4999945;28;20484;-84
2022/10/20 10:46:36;;;;;;;44.90;41.30;;;13.40;99.90;;;;;;5000160;28;20474;-84
2022/10/20 10:49:42;;;;;;;80.97;77.17;;;13.30;99.90;;;;;;5000567;28;20454;-85
2022/10/20 10:52:25;;;;;;;253.80;244.97;;;13.30;99.90;;;;;;4998001;28;20458;-83
2022/10/20 10:55:10;;;;;;;319.53;308.50;;;13.20;99.90;;;;;;4999590;28;20458;-83
2022/10/20 10:57:52;;;;;;;416.23;401.20;;;13.20;99.90;;;;;;4999568;28;20481;-83
2022/10/20 11:00:29;;;;;;;452.67;436.10;;;13.20;99.90;;;;;;5013587;28;20454;-82
2022/10/20 11:03:14;;;;;;;568.77;545.20;;;13.20;99.90;;;;;;5009246;28;20456;-82
2022/10/20 11:06:20;;;;;;;657.97;627.37;;;13.00;99.90;;;;;;5011679;28;20493;-82
2022/10/20 11:09:02;;;;;;;710.57;673.77;;;13.10;99.90;;;;;;4987079;28;20460;-83
2022/10/20 11:11:41;;;;;;;721.80;682.33;;;13.00;99.90;;;;;;4998299;28;20465;-83
2022/10/20 11:14:20;;;;;;;761.70;718.80;;;13.00;99.90;;;;;;4997559;28;20454;-83
2022/10/20 11:16:57;;;;;;;778.77;732.37;;;12.80;99.90;;;;;;4997610;28;20497;-83
2022/10/20 11:19:43;;;;;;;805.73;756.20;;;12.90;99.90;;;;;;4996672;28;20975;-83
2022/10/20 11:22:22;;;;;;;777.50;729.13;;;12.80;99.90;;;;;;4998083;28;20458;-83
2022/10/20 11:24:58;;;;;;;816.17;760.77;;;12.80;99.90;;;;;;4997090;28;20485;-83
2022/10/20 11:27:29;;;;;;;819.13;761.47;;;12.80;99.90;;;;;;4998034;28;20848;-82
2022/10/20 11:30:04;;;;;;;815.40;754.20;;;12.70;99.90;;;;;;4997222;28;20458;-82
2022/10/20 11:32:36;;;;;;;814.83;752.63;;;12.70;99.90;;;;;;4997241;28;20453;-83
2022/10/20 11:35:14;;;;;;;813.17;750.80;;;12.80;99.90;;;;;;4996928;28;20458;-83
2022/10/20 11:37:45;;;;;;;823.40;758.60;;;12.70;99.90;;;;;;4997465;28;20479;-82
2022/10/20 11:40:23;;;;;;;814.23;748.50;;;12.90;99.90;;;;;;4997546;28;20446;-82
2022/10/20 11:43:00;;;;;;;809.07;743.07;;;12.80;99.90;;;;;;4997621;28;20507;-82
2022/10/20 11:45:42;;;;;;;812.57;746.07;;;12.90;99.90;;;;;;4996646;28;20478;-82
2022/10/20 11:48:16;;;;;;;826.27;758.20;;;12.90;99.90;;;;;;4997172;28;20473;-82
2022/10/20 11:50:53;;;;;;;828.43;761.17;;;13.00;99.90;;;;;;4997224;28;20457;-82
2022/10/20 11:53:35;;;;;;;825.80;757.80;;;13.00;99.90;;;;;;4996951;28;20477;-82
2022/10/20 11:56:35;;;;;;;813.30;746.30;;;13.00;99.90;;;;;;4997073;28;20481;-82
2022/10/20 11:59:24;;;;;;;812.93;745.67;;;12.90;99.90;;;;;;4997252;28;20526;-82
2022/10/20 12:02:23;;;;;;;812.77;744.17;;;12.90;99.90;;;;;;4996717;28;20473;-83
2022/10/20 12:05:09;;;;;;;827.53;762.47;;;12.90;99.90;;;;;;4995999;28;20489;-81
2022/10/20 12:08:13;;;;;;;810.73;745.87;;;12.80;99.90;;;;;;4997012;28;20474;-81
2022/10/20 12:10:48;;;;;;;816.53;750.47;;;12.80;99.90;;;;;;4977343;28;20465;-82
2022/10/20 12:13:30;;;;;;;801.90;732.70;;;12.70;99.90;;;;;;4986366;28;20458;-78
2022/10/20 12:15:57;;;;;;;796.37;724.37;;;12.90;99.90;;;;;;4985306;28;20463;-81
2022/10/20 12:18:28;;;;;;;803.97;729.43;;;13.00;99.90;;;;;;4977219;28;20451;-82
2022/10/20 12:21:00;;;;;;;800.77;725.30;;;12.90;99.90;;;;;;4976629;28;20466;-82
2022/10/20 12:24:03;;;;;;;808.33;732.70;;;13.00;99.90;;;;;;4976962;28;20490;-82
2022/10/20 12:27:05;;;;;;;798.60;723.23;;;13.10;99.90;;;;;;4975935;28;20490;-83
2022/10/20 12:30:01;;;;;;;817.03;741.00;;;13.10;99.90;;;;;;4977767;28;20438;-82
2022/10/20 12:32:54;;;;;;;809.77;735.60;;;13.40;99.90;;;;;;4977595;28;20455;-82
2022/10/20 12:35:59;;;;;;;812.63;737.87;;;13.40;99.90;;;;;;4976579;28;20546;-82
2022/10/20 12:38:27;;;;;;;808.90;732.23;;;13.50;99.90;;;;;;4977715;28;20462;-82
2022/10/20 12:40:57;;;;;;;828.97;752.77;;;13.90;99.90;;;;;;4977241;28;20960;-82
2022/10/20 12:43:28;;;;;;;812.60;740.70;;;14.00;99.90;;;;;;4977173;28;20956;-82